sensor_id;sensor_type;location;lat;lon;timestamp;temperature;humidity
38582;DHT22;24349;53.720;10.014;2023-01-10T00:01:49;6.90;99.90
38582;DHT22;24349;53.720;10.014;2023-01-10T00:04:15;6.80;99.90
38582;DHT22;24349;53.720;10.014;2023-01-10T00:06:40;6.80;99.90
38582;DHT22;24349;53.720;10.014;2023-01-10T00:09:06;6.70;99.90
38582;DHT22;24349;53.720;10.014;2023-01-10T00:11:31;6.80;99.90
38582;DHT22;24349;53.720;10.014;2023-01-10T00:14:16;6.80;99.90
38582;DHT22;24349;53.720;10.014;2023-01-10T00:16:41;6.70;99.90
38582;DHT22;24349;53.720;10.014;2023-01-10T00:19:07;6.70;99.90
38582;DHT22;24349;53.720;10.014;2023-01-10T00:21:35;6.80;99.90
38582;DHT22;24349;53.720;10.014;2023-01-10T00:24:00;6.70;99.90
38582;DHT22;24349;53.720;10.014;2023-01-10T00:26:41;6.70;99.90
38582;DHT22;24349;53.720;10.014;2023-01-10T00:29:07;6.60;99.90
38582;DHT22;24349;53.720;10.014;2023-01-10T00:31:32;6.70;99.90
38582;DHT22;24349;53.720;10.014;2023-01-10T00:33:58;6.80;99.90
38582;DHT22;24349;53.720;10.014;2023-01-10T00:36:23;6.70;99.90
38582;DHT22;24349;53.720;10.014;2023-01-10T00:38:49;6.70;99.90
38582;DHT22;24349;53.720;10.014;2023-01-10T00:41:15;6.70;99.90
38582;DHT22;24349;53.720;10.014;2023-01-10T00:43:59;6.60;99.90
38582;DHT22;24349;53.720;10.014;2023-01-10T00:46:25;6.60;99.90
38582;DHT22;24349;53.720;10.014;2023-01-10T00:48:50;6.60;99.90
38582;DHT22;24349;53.720;10.014;2023-01-10T00:51:17;6.70;99.90
38582;DHT22;24349;53.720;10.014;2023-01-10T00:53:43;6.70;99.90
38582;DHT22;24349;53.720;10.014;2023-01-10T00:56:08;6.60;99.90
38582;DHT22;24349;53.720;10.014;2023-01-10T00:58:34;6.70;99.90
38582;DHT22;24349;53.720;10.014;2023-01-10T01:00:59;6.70;99.90
38582;DHT22;24349;53.720;10.014;2023-01-10T01:03:25;6.70;99.90
38582;DHT22;24349;53.720;10.014;2023-01-10T01:05:50;6.80;99.90
38582;DHT22;24349;53.720;10.014;2023-01-10T01:08:17;6.70;99.90
38582;DHT22;24349;53.720;10.014;2023-01-10T01:10:42;6.60;99.90
38582;DHT22;24349;53.720;10.014;2023-01-10T01:13:09;6.70;99.90
38582;DHT22;24349;53.720;10.014;2023-01-10T01:15:35;6.70;99.90
38582;DHT22;24349;53.720;10.014;2023-01-10T01:18:01;6.60;99.90
38582;DHT22;24349;53.720;10.014;2023-01-10T01:20:27;6.70;99.90
38582;DHT22;24349;53.720;10.014;2023-01-10T01:22:52;6.60;99.90
38582;DHT22;24349;53.720;10.014;2023-01-10T01:25:18;6.60;99.90
38582;DHT22;24349;53.720;10.014;2023-01-10T01:27:43;6.50;99.90
38582;DHT22;24349;53.720;10.014;2023-01-10T01:30:09;6.50;99.90
38582;DHT22;24349;53.720;10.014;2023-01-10T01:32:35;6.40;99.90
38582;DHT22;24349;53.720;10.014;2023-01-10T01:35:01;6.40;99.90
38582;DHT22;24349;53.720;10.014;2023-01-10T01:37:26;6.40;99.90
38582;DHT22;24349;53.720;10.014;2023-01-10T01:39:52;6.30;99.90
38582;DHT22;24349;53.720;10.014;2023-01-10T01:42:23;6.30;99.90
38582;DHT22;24349;53.720;10.014;2023-01-10T01:47:34;6.20;99.90
38582;DHT22;24349;53.720;10.014;2023-01-10T01:50:01;6.20;99.90
38582;DHT22;24349;53.720;10.014;2023-01-10T01:52:29;6.20;99.90
38582;DHT22;24349;53.720;10.014;2023-01-10T01:54:57;6.20;99.90
38582;DHT22;24349;53.720;10.014;2023-01-10T01:57:24;6.10;99.90
38582;DHT22;24349;53.720;10.014;2023-01-10T01:59:50;6.10;99.90
38582;DHT22;24349;53.720;10.014;2023-01-10T02:02:18;6.10;99.90
38582;DHT22;24349;53.720;10.014;2023-01-10T02:04:51;6.10;99.90
38582;DHT22;24349;53.720;10.014;2023-01-10T02:07:17;6.10;99.90
38582;DHT22;24349;53.720;10.014;2023-01-10T02:09:56;6.10;99.90
38582;DHT22;24349;53.720;10.014;2023-01-10T02:12:23;6.10;99.90
38582;DHT22;24349;53.720;10.014;2023-01-10T02:14:50;6.10;99.90
38582;DHT22;24349;53.720;10.014;2023-01-10T02:17:16;6.00;99.90
38582;DHT22;24349;53.720;10.014;2023-01-10T02:19:51;6.10;99.90
38582;DHT22;24349;53.720;10.014;2023-01-10T02:25:03;6.10;99.90
38582;DHT22;24349;53.720;10.014;2023-01-10T02:30:28;6.10;99.90
38582;DHT22;24349;53.720;10.014;2023-01-10T02:32:59;6.10;99.90
38582;DHT22;24349;53.720;10.014;2023-01-10T02:35:43;6.00;99.90
38582;DHT22;24349;53.720;10.014;2023-01-10T02:38:30;6.00;99.90
38582;DHT22;24349;53.720;10.014;2023-01-10T02:43:44;6.00;99.90
38582;DHT22;24349;53.720;10.014;2023-01-10T02:46:17;6.00;99.90
38582;DHT22;24349;53.720;10.014;2023-01-10T02:48:50;6.00;99.90
38582;DHT22;24349;53.720;10.014;2023-01-10T02:53:48;6.00;99.90
38582;DHT22;24349;53.720;10.014;2023-01-10T02:56:23;6.00;99.90
38582;DHT22;24349;53.720;10.014;2023-01-10T03:04:21;6.00;99.90
38582;DHT22;24349;53.720;10.014;2023-01-10T03:07:04;6.00;99.90
38582;DHT22;24349;53.720;10.014;2023-01-10T03:09:34;6.00;99.90
38582;DHT22;24349;53.720;10.014;2023-01-10T03:12:06;6.00;99.90
38582;DHT22;24349;53.720;10.014;2023-01-10T03:14:34;6.00;99.90
38582;DHT22;24349;53.720;10.014;2023-01-10T03:17:03;6.00;99.90
38582;DHT22;24349;53.720;10.014;2023-01-10T03:19:34;6.00;99.90
38582;DHT22;24349;53.720;10.014;2023-01-10T03:22:01;6.00;99.90
38582;DHT22;24349;53.720;10.014;2023-01-10T03:24:47;6.00;99.90
38582;DHT22;24349;53.720;10.014;2023-01-10T03:27:21;5.90;99.90
38582;DHT22;24349;53.720;10.014;2023-01-10T03:32:50;5.90;99.90
38582;DHT22;24349;53.720;10.014;2023-01-10T03:35:15;5.90;99.90
38582;DHT22;24349;53.720;10.014;2023-01-10T03:45:33;5.70;99.90
38582;DHT22;24349;53.720;10.014;2023-01-10T03:48:00;5.70;99.90
38582;DHT22;24349;53.720;10.014;2023-01-10T03:50:27;5.60;99.90
38582;DHT22;24349;53.720;10.014;2023-01-10T03:52:53;5.60;99.90
38582;DHT22;24349;53.720;10.014;2023-01-10T03:55:19;5.60;99.90
38582;DHT22;24349;53.720;10.014;2023-01-10T03:57:46;5.60;99.90
38582;DHT22;24349;53.720;10.014;2023-01-10T04:00:13;5.50;99.90
38582;DHT22;24349;53.720;10.014;2023-01-10T04:02:39;5.50;99.90
38582;DHT22;24349;53.720;10.014;2023-01-10T04:05:04;5.50;99.90
38582;DHT22;24349;53.720;10.014;2023-01-10T04:07:30;5.50;99.90
38582;DHT22;24349;53.720;10.014;2023-01-10T04:09:55;5.40;99.90
38582;DHT22;24349;53.720;10.014;2023-01-10T04:12:21;5.40;99.90
38582;DHT22;24349;53.720;10.014;2023-01-10T04:14:46;5.40;99.90
38582;DHT22;24349;53.720;10.014;2023-01-10T04:17:13;5.40;99.90
38582;DHT22;24349;53.720;10.014;2023-01-10T04:19:38;5.40;99.90
38582;DHT22;24349;53.720;10.014;2023-01-10T04:22:04;5.40;99.90
38582;DHT22;24349;53.720;10.014;2023-01-10T04:24:32;5.40;99.90
38582;DHT22;24349;53.720;10.014;2023-01-10T04:26:58;5.40;99.90
38582;DHT22;24349;53.720;10.014;2023-01-10T04:29:23;5.50;99.90
38582;DHT22;24349;53.720;10.014;2023-01-10T04:31:49;5.50;99.90
38582;DHT22;24349;53.720;10.014;2023-01-10T04:34:14;5.50;99.90
38582;DHT22;24349;53.720;10.014;2023-01-10T04:36:40;5.50;99.90
38582;DHT22;24349;53.720;10.014;2023-01-10T04:39:06;5.50;99.90
38582;DHT22;24349;53.720;10.014;2023-01-10T04:41:32;5.50;99.90
38582;DHT22;24349;53.720;10.014;2023-01-10T04:43:57;5.60;99.90
38582;DHT22;24349;53.720;10.014;2023-01-10T04:46:23;5.60;99.90
38582;DHT22;24349;53.720;10.014;2023-01-10T04:48:48;5.70;99.90
38582;DHT22;24349;53.720;10.014;2023-01-10T04:51:14;5.70;99.90
38582;DHT22;24349;53.720;10.014;2023-01-10T04:53:40;5.70;99.90
38582;DHT22;24349;53.720;10.014;2023-01-10T04:56:06;5.70;99.90
38582;DHT22;24349;53.720;10.014;2023-01-10T04:58:32;5.70;99.90
38582;DHT22;24349;53.720;10.014;2023-01-10T05:00:58;5.70;99.90
38582;DHT22;24349;53.720;10.014;2023-01-10T05:03:24;5.70;99.90
38582;DHT22;24349;53.720;10.014;2023-01-10T05:05:49;5.70;99.90
38582;DHT22;24349;53.720;10.014;2023-01-10T05:08:14;5.70;99.90
38582;DHT22;24349;53.720;10.014;2023-01-10T05:10:40;5.70;99.90
38582;DHT22;24349;53.720;10.014;2023-01-10T05:13:05;5.70;99.90
38582;DHT22;24349;53.720;10.014;2023-01-10T05:15:31;5.70;99.90
38582;DHT22;24349;53.720;10.014;2023-01-10T05:17:57;5.70;99.90
38582;DHT22;24349;53.720;10.014;2023-01-10T05:20:23;5.80;99.90
38582;DHT22;24349;53.720;10.014;2023-01-10T05:22:48;5.80;99.90
38582;DHT22;24349;53.720;10.014;2023-01-10T05:25:14;5.80;99.90
38582;DHT22;24349;53.720;10.014;2023-01-10T05:27:40;5.80;99.90
38582;DHT22;24349;53.720;10.014;2023-01-10T05:30:08;5.80;99.90
38582;DHT22;24349;53.720;10.014;2023-01-10T05:32:34;5.70;99.90
38582;DHT22;24349;53.720;10.014;2023-01-10T05:34:59;5.70;99.90
38582;DHT22;24349;53.720;10.014;2023-01-10T05:37:25;5.80;99.90
38582;DHT22;24349;53.720;10.014;2023-01-10T05:39:50;5.70;99.90
38582;DHT22;24349;53.720;10.014;2023-01-10T05:42:16;5.70;99.90
38582;DHT22;24349;53.720;10.014;2023-01-10T05:44:41;5.80;99.90
38582;DHT22;24349;53.720;10.014;2023-01-10T05:47:06;5.70;99.90
38582;DHT22;24349;53.720;10.014;2023-01-10T05:49:32;5.80;99.90
38582;DHT22;24349;53.720;10.014;2023-01-10T05:51:57;5.80;99.90
38582;DHT22;24349;53.720;10.014;2023-01-10T05:54:23;5.70;99.90
38582;DHT22;24349;53.720;10.014;2023-01-10T05:56:48;5.70;99.90
38582;DHT22;24349;53.720;10.014;2023-01-10T05:59:14;5.70;99.90
38582;DHT22;24349;53.720;10.014;2023-01-10T06:01:39;5.60;99.90
38582;DHT22;24349;53.720;10.014;2023-01-10T06:04:05;5.60;99.90
38582;DHT22;24349;53.720;10.014;2023-01-10T06:06:30;5.60;99.90
38582;DHT22;24349;53.720;10.014;2023-01-10T06:08:56;5.50;99.90
38582;DHT22;24349;53.720;10.014;2023-01-10T06:11:23;5.50;99.90
38582;DHT22;24349;53.720;10.014;2023-01-10T06:13:54;5.50;99.90
38582;DHT22;24349;53.720;10.014;2023-01-10T06:16:20;5.50;99.90
38582;DHT22;24349;53.720;10.014;2023-01-10T06:18:45;5.60;99.90
38582;DHT22;24349;53.720;10.014;2023-01-10T06:21:11;5.40;99.90
38582;DHT22;24349;53.720;10.014;2023-01-10T06:23:36;5.40;99.90
38582;DHT22;24349;53.720;10.014;2023-01-10T06:26:04;5.40;99.90
38582;DHT22;24349;53.720;10.014;2023-01-10T06:28:29;5.30;99.90
38582;DHT22;24349;53.720;10.014;2023-01-10T06:30:54;5.30;99.90
38582;DHT22;24349;53.720;10.014;2023-01-10T06:33:20;5.30;99.90
38582;DHT22;24349;53.720;10.014;2023-01-10T06:35:46;5.30;99.90
38582;DHT22;24349;53.720;10.014;2023-01-10T06:38:12;5.30;99.90
38582;DHT22;24349;53.720;10.014;2023-01-10T06:40:38;5.30;99.90
38582;DHT22;24349;53.720;10.014;2023-01-10T06:43:03;5.20;99.90
38582;DHT22;24349;53.720;10.014;2023-01-10T06:45:29;5.20;99.90
38582;DHT22;24349;53.720;10.014;2023-01-10T06:47:54;5.20;99.90
38582;DHT22;24349;53.720;10.014;2023-01-10T06:50:20;5.20;99.90
38582;DHT22;24349;53.720;10.014;2023-01-10T06:52:53;5.20;99.90
38582;DHT22;24349;53.720;10.014;2023-01-10T06:55:18;5.10;99.90
38582;DHT22;24349;53.720;10.014;2023-01-10T06:57:44;5.10;99.90
38582;DHT22;24349;53.720;10.014;2023-01-10T07:00:09;5.10;99.90
38582;DHT22;24349;53.720;10.014;2023-01-10T07:02:36;5.10;99.90
38582;DHT22;24349;53.720;10.014;2023-01-10T07:05:01;5.10;99.90
38582;DHT22;24349;53.720;10.014;2023-01-10T07:07:27;5.10;99.90
38582;DHT22;24349;53.720;10.014;2023-01-10T07:09:52;5.10;99.90
38582;DHT22;24349;53.720;10.014;2023-01-10T07:12:18;5.10;99.90
38582;DHT22;24349;53.720;10.014;2023-01-10T07:14:43;5.10;99.90
38582;DHT22;24349;53.720;10.014;2023-01-10T07:17:09;5.10;99.90
38582;DHT22;24349;53.720;10.014;2023-01-10T07:19:34;5.20;99.90
38582;DHT22;24349;53.720;10.014;2023-01-10T07:22:00;5.30;99.90
38582;DHT22;24349;53.720;10.014;2023-01-10T07:24:25;5.30;99.90
38582;DHT22;24349;53.720;10.014;2023-01-10T07:26:53;5.30;99.90
38582;DHT22;24349;53.720;10.014;2023-01-10T07:29:18;5.20;99.90
38582;DHT22;24349;53.720;10.014;2023-01-10T07:31:44;5.20;99.90
38582;DHT22;24349;53.720;10.014;2023-01-10T07:34:09;5.10;99.90
38582;DHT22;24349;53.720;10.014;2023-01-10T07:36:35;5.20;99.90
38582;DHT22;24349;53.720;10.014;2023-01-10T07:39:01;5.20;99.90
38582;DHT22;24349;53.720;10.014;2023-01-10T07:41:27;5.30;99.90
38582;DHT22;24349;53.720;10.014;2023-01-10T07:43:52;5.20;99.90
38582;DHT22;24349;53.720;10.014;2023-01-10T07:46:18;5.20;99.90
38582;DHT22;24349;53.720;10.014;2023-01-10T07:48:43;5.20;99.90
38582;DHT22;24349;53.720;10.014;2023-01-10T07:51:11;5.10;99.90
38582;DHT22;24349;53.720;10.014;2023-01-10T07:53:36;5.10;99.90
38582;DHT22;24349;53.720;10.014;2023-01-10T07:56:02;5.10;99.90
38582;DHT22;24349;53.720;10.014;2023-01-10T07:58:28;5.10;99.90
38582;DHT22;24349;53.720;10.014;2023-01-10T08:00:57;5.10;99.90
38582;DHT22;24349;53.720;10.014;2023-01-10T08:03:23;5.20;99.90
38582;DHT22;24349;53.720;10.014;2023-01-10T08:05:49;5.40;99.90
38582;DHT22;24349;53.720;10.014;2023-01-10T08:08:14;5.30;99.90
38582;DHT22;24349;53.720;10.014;2023-01-10T08:10:41;5.30;99.90
38582;DHT22;24349;53.720;10.014;2023-01-10T08:13:07;5.30;99.90
38582;DHT22;24349;53.720;10.014;2023-01-10T08:15:32;5.40;99.90
38582;DHT22;24349;53.720;10.014;2023-01-10T08:17:59;5.40;99.90
38582;DHT22;24349;53.720;10.014;2023-01-10T08:20:25;5.40;99.90
38582;DHT22;24349;53.720;10.014;2023-01-10T08:22:51;5.40;99.90
38582;DHT22;24349;53.720;10.014;2023-01-10T08:25:16;5.40;99.90
38582;DHT22;24349;53.720;10.014;2023-01-10T08:27:42;5.40;99.90
38582;DHT22;24349;53.720;10.014;2023-01-10T08:30:07;5.50;99.90
38582;DHT22;24349;53.720;10.014;2023-01-10T08:32:33;5.50;99.90
38582;DHT22;24349;53.720;10.014;2023-01-10T08:34:58;5.50;99.90
38582;DHT22;24349;53.720;10.014;2023-01-10T08:37:24;5.50;99.90
38582;DHT22;24349;53.720;10.014;2023-01-10T08:39:49;5.70;99.90
38582;DHT22;24349;53.720;10.014;2023-01-10T08:42:15;5.60;99.90
38582;DHT22;24349;53.720;10.014;2023-01-10T08:44:41;5.70;99.90
38582;DHT22;24349;53.720;10.014;2023-01-10T08:47:06;5.70;99.90
38582;DHT22;24349;53.720;10.014;2023-01-10T08:49:32;5.80;99.90
38582;DHT22;24349;53.720;10.014;2023-01-10T08:51:57;6.00;99.90
38582;DHT22;24349;53.720;10.014;2023-01-10T08:54:23;6.30;99.90
38582;DHT22;24349;53.720;10.014;2023-01-10T08:56:48;6.40;99.90
38582;DHT22;24349;53.720;10.014;2023-01-10T08:59:14;6.30;99.90
38582;DHT22;24349;53.720;10.014;2023-01-10T09:01:40;6.20;99.90
38582;DHT22;24349;53.720;10.014;2023-01-10T09:04:06;6.10;99.90
38582;DHT22;24349;53.720;10.014;2023-01-10T09:06:31;6.30;99.90
38582;DHT22;24349;53.720;10.014;2023-01-10T09:08:57;6.20;99.90
38582;DHT22;24349;53.720;10.014;2023-01-10T09:11:22;6.10;99.90
38582;DHT22;24349;53.720;10.014;2023-01-10T09:13:48;6.20;99.90
38582;DHT22;24349;53.720;10.014;2023-01-10T09:16:15;6.20;99.90
38582;DHT22;24349;53.720;10.014;2023-01-10T09:18:41;6.30;99.90
38582;DHT22;24349;53.720;10.014;2023-01-10T09:21:06;6.40;99.90
38582;DHT22;24349;53.720;10.014;2023-01-10T09:23:32;6.60;99.90
38582;DHT22;24349;53.720;10.014;2023-01-10T09:25:58;6.70;99.90
38582;DHT22;24349;53.720;10.014;2023-01-10T09:28:24;6.90;99.90
38582;DHT22;24349;53.720;10.014;2023-01-10T09:30:50;7.00;99.90
38582;DHT22;24349;53.720;10.014;2023-01-10T09:33:15;7.00;99.90
38582;DHT22;24349;53.720;10.014;2023-01-10T09:35:41;7.00;99.90
38582;DHT22;24349;53.720;10.014;2023-01-10T09:38:09;6.90;99.90
38582;DHT22;24349;53.720;10.014;2023-01-10T09:43:43;6.60;99.90
38582;DHT22;24349;53.720;10.014;2023-01-10T09:45:55;6.60;99.90
38582;DHT22;24349;53.720;10.014;2023-01-10T09:48:24;6.50;99.90
38582;DHT22;24349;53.720;10.014;2023-01-10T09:53:20;6.50;99.90
38582;DHT22;24349;53.720;10.014;2023-01-10T09:55:49;6.50;99.90
38582;DHT22;24349;53.720;10.014;2023-01-10T09:58:16;6.50;99.90
38582;DHT22;24349;53.720;10.014;2023-01-10T10:00:53;6.50;99.90
38582;DHT22;24349;53.720;10.014;2023-01-10T10:03:41;6.50;99.90
38582;DHT22;24349;53.720;10.014;2023-01-10T10:06:10;6.50;99.90
38582;DHT22;24349;53.720;10.014;2023-01-10T10:08:36;6.50;99.90
38582;DHT22;24349;53.720;10.014;2023-01-10T10:14:02;6.50;99.90
38582;DHT22;24349;53.720;10.014;2023-01-10T10:22:04;6.50;99.90
38582;DHT22;24349;53.720;10.014;2023-01-10T10:24:47;6.50;99.90
38582;DHT22;24349;53.720;10.014;2023-01-10T10:34:50;6.50;99.90
38582;DHT22;24349;53.720;10.014;2023-01-10T10:37:25;6.50;99.90
38582;DHT22;24349;53.720;10.014;2023-01-10T10:40:01;6.50;99.90
38582;DHT22;24349;53.720;10.014;2023-01-10T10:42:28;6.50;99.90
38582;DHT22;24349;53.720;10.014;2023-01-10T10:44:58;6.50;99.90
38582;DHT22;24349;53.720;10.014;2023-01-10T10:47:29;6.50;99.90
38582;DHT22;24349;53.720;10.014;2023-01-10T10:49:58;6.50;99.90
38582;DHT22;24349;53.720;10.014;2023-01-10T10:52:26;6.50;99.90
38582;DHT22;24349;53.720;10.014;2023-01-10T10:54:54;6.50;99.90
38582;DHT22;24349;53.720;10.014;2023-01-10T10:57:20;6.50;99.90
38582;DHT22;24349;53.720;10.014;2023-01-10T10:59:47;6.60;99.90
38582;DHT22;24349;53.720;10.014;2023-01-10T11:02:21;6.50;99.90
38582;DHT22;24349;53.720;10.014;2023-01-10T11:04:48;6.50;99.90
38582;DHT22;24349;53.720;10.014;2023-01-10T11:07:15;6.50;99.90
38582;DHT22;24349;53.720;10.014;2023-01-10T11:09:41;6.50;99.90
38582;DHT22;24349;53.720;10.014;2023-01-10T11:12:28;6.50;99.90
38582;DHT22;24349;53.720;10.014;2023-01-10T11:14:55;6.50;99.90
38582;DHT22;24349;53.720;10.014;2023-01-10T11:19:57;6.50;99.90
38582;DHT22;24349;53.720;10.014;2023-01-10T11:22:22;6.60;99.90
38582;DHT22;24349;53.720;10.014;2023-01-10T11:24:58;6.70;99.90
38582;DHT22;24349;53.720;10.014;2023-01-10T11:27:25;6.60;99.90
38582;DHT22;24349;53.720;10.014;2023-01-10T11:29:55;6.70;99.90
38582;DHT22;24349;53.720;10.014;2023-01-10T11:32:23;6.70;99.90
38582;DHT22;24349;53.720;10.014;2023-01-10T11:34:55;6.70;99.90
38582;DHT22;24349;53.720;10.014;2023-01-10T11:37:24;6.70;99.90
38582;DHT22;24349;53.720;10.014;2023-01-10T11:42:37;6.70;99.90
38582;DHT22;24349;53.720;10.014;2023-01-10T11:45:20;6.70;99.90
38582;DHT22;24349;53.720;10.014;2023-01-10T11:47:47;6.70;99.90
38582;DHT22;24349;53.720;10.014;2023-01-10T11:50:27;6.80;99.90
38582;DHT22;24349;53.720;10.014;2023-01-10T11:52:53;6.80;99.90
38582;DHT22;24349;53.720;10.014;2023-01-10T11:55:23;6.80;99.90
38582;DHT22;24349;53.720;10.014;2023-01-10T12:00:30;6.80;99.90
38582;DHT22;24349;53.720;10.014;2023-01-10T12:02:56;6.80;99.90
38582;DHT22;24349;53.720;10.014;2023-01-10T12:05:22;6.80;99.90
38582;DHT22;24349;53.720;10.014;2023-01-10T12:07:59;6.90;99.90
38582;DHT22;24349;53.720;10.014;2023-01-10T12:10:26;6.90;99.90
38582;DHT22;24349;53.720;10.014;2023-01-10T12:12:57;6.90;99.90
38582;DHT22;24349;53.720;10.014;2023-01-10T12:17:48;7.00;99.90
38582;DHT22;24349;53.720;10.014;2023-01-10T12:20:14;7.00;99.90
38582;DHT22;24349;53.720;10.014;2023-01-10T12:22:41;7.10;99.90
38582;DHT22;24349;53.720;10.014;2023-01-10T12:25:49;7.00;99.90
38582;DHT22;24349;53.720;10.014;2023-01-10T12:27:55;7.00;99.90
38582;DHT22;24349;53.720;10.014;2023-01-10T12:30:32;7.00;99.90
38582;DHT22;24349;53.720;10.014;2023-01-10T12:33:03;7.00;99.90
38582;DHT22;24349;53.720;10.014;2023-01-10T12:35:35;7.10;99.90
38582;DHT22;24349;53.720;10.014;2023-01-10T12:38:02;7.10;99.90
38582;DHT22;24349;53.720;10.014;2023-01-10T12:43:02;7.20;99.90
38582;DHT22;24349;53.720;10.014;2023-01-10T12:46:08;7.20;99.90
38582;DHT22;24349;53.720;10.014;2023-01-10T12:48:48;7.20;99.90
38582;DHT22;24349;53.720;10.014;2023-01-10T12:51:17;7.20;99.90
38582;DHT22;24349;53.720;10.014;2023-01-10T12:53:45;7.20;99.90
38582;DHT22;24349;53.720;10.014;2023-01-10T12:56:14;7.20;99.90
38582;DHT22;24349;53.720;10.014;2023-01-10T12:58:47;7.20;99.90
38582;DHT22;24349;53.720;10.014;2023-01-10T13:01:19;7.20;99.90
38582;DHT22;24349;53.720;10.014;2023-01-10T13:03:48;7.20;99.90
38582;DHT22;24349;53.720;10.014;2023-01-10T13:06:20;7.30;99.90
38582;DHT22;24349;53.720;10.014;2023-01-10T13:08:46;7.30;99.90
38582;DHT22;24349;53.720;10.014;2023-01-10T13:11:12;7.40;99.90
38582;DHT22;24349;53.720;10.014;2023-01-10T13:13:43;7.30;99.90
38582;DHT22;24349;53.720;10.014;2023-01-10T13:16:29;7.30;99.90
38582;DHT22;24349;53.720;10.014;2023-01-10T13:19:00;7.30;99.90
38582;DHT22;24349;53.720;10.014;2023-01-10T13:21:26;7.30;99.90
38582;DHT22;24349;53.720;10.014;2023-01-10T13:23:52;7.30;99.90
38582;DHT22;24349;53.720;10.014;2023-01-10T13:26:19;7.20;99.90
38582;DHT22;24349;53.720;10.014;2023-01-10T13:28:58;7.30;99.90
38582;DHT22;24349;53.720;10.014;2023-01-10T13:31:25;7.40;99.90
38582;DHT22;24349;53.720;10.014;2023-01-10T13:33:54;7.50;99.90
38582;DHT22;24349;53.720;10.014;2023-01-10T13:36:21;7.50;99.90
38582;DHT22;24349;53.720;10.014;2023-01-10T13:38:49;7.60;99.90
38582;DHT22;24349;53.720;10.014;2023-01-10T13:41:15;7.60;99.90
38582;DHT22;24349;53.720;10.014;2023-01-10T13:44:14;7.80;99.90
38582;DHT22;24349;53.720;10.014;2023-01-10T13:46:40;7.70;99.90
38582;DHT22;24349;53.720;10.014;2023-01-10T13:51:37;7.90;99.90
38582;DHT22;24349;53.720;10.014;2023-01-10T13:56:35;7.70;99.90
38582;DHT22;24349;53.720;10.014;2023-01-10T13:59:02;7.70;99.90
38582;DHT22;24349;53.720;10.014;2023-01-10T14:01:53;7.80;99.90
38582;DHT22;24349;53.720;10.014;2023-01-10T14:04:44;7.70;99.90
38582;DHT22;24349;53.720;10.014;2023-01-10T14:07:17;7.60;99.90
38582;DHT22;24349;53.720;10.014;2023-01-10T14:09:45;7.60;99.90
38582;DHT22;24349;53.720;10.014;2023-01-10T14:12:21;7.50;99.90
38582;DHT22;24349;53.720;10.014;2023-01-10T14:15:48;7.60;99.90
38582;DHT22;24349;53.720;10.014;2023-01-10T14:17:54;7.50;99.90
38582;DHT22;24349;53.720;10.014;2023-01-10T14:20:20;7.50;99.90
38582;DHT22;24349;53.720;10.014;2023-01-10T14:25:33;7.40;99.90
38582;DHT22;24349;53.720;10.014;2023-01-10T14:27:59;7.40;99.90
38582;DHT22;24349;53.720;10.014;2023-01-10T14:32:51;7.50;99.90
38582;DHT22;24349;53.720;10.014;2023-01-10T14:35:18;7.50;99.90
38582;DHT22;24349;53.720;10.014;2023-01-10T14:37:57;7.50;99.90
38582;DHT22;24349;53.720;10.014;2023-01-10T14:40:28;7.40;99.90
38582;DHT22;24349;53.720;10.014;2023-01-10T14:43:00;7.40;99.90
38582;DHT22;24349;53.720;10.014;2023-01-10T14:47:59;7.40;99.90
38582;DHT22;24349;53.720;10.014;2023-01-10T14:50:25;7.40;99.90
38582;DHT22;24349;53.720;10.014;2023-01-10T14:52:55;7.30;99.90
38582;DHT22;24349;53.720;10.014;2023-01-10T14:55:21;7.30;99.90
38582;DHT22;24349;53.720;10.014;2023-01-10T14:57:54;7.30;99.90
38582;DHT22;24349;53.720;10.014;2023-01-10T15:00:23;7.30;99.90
38582;DHT22;24349;53.720;10.014;2023-01-10T15:02:48;7.30;99.90
38582;DHT22;24349;53.720;10.014;2023-01-10T15:05:15;7.30;99.90
38582;DHT22;24349;53.720;10.014;2023-01-10T15:07:42;7.30;99.90
38582;DHT22;24349;53.720;10.014;2023-01-10T15:10:14;7.30;99.90
38582;DHT22;24349;53.720;10.014;2023-01-10T15:12:41;7.30;99.90
38582;DHT22;24349;53.720;10.014;2023-01-10T15:15:10;7.30;99.90
38582;DHT22;24349;53.720;10.014;2023-01-10T15:17:37;7.20;99.90
38582;DHT22;24349;53.720;10.014;2023-01-10T15:20:03;7.10;99.90
38582;DHT22;24349;53.720;10.014;2023-01-10T15:22:30;7.20;99.90
38582;DHT22;24349;53.720;10.014;2023-01-10T15:25:39;7.20;99.90
38582;DHT22;24349;53.720;10.014;2023-01-10T15:27:48;7.20;99.90
38582;DHT22;24349;53.720;10.014;2023-01-10T15:30:22;7.10;99.90
38582;DHT22;24349;53.720;10.014;2023-01-10T15:32:48;7.20;99.90
38582;DHT22;24349;53.720;10.014;2023-01-10T15:35:14;7.10;99.90
38582;DHT22;24349;53.720;10.014;2023-01-10T15:37:40;7.20;99.90
38582;DHT22;24349;53.720;10.014;2023-01-10T15:40:23;7.20;99.90
38582;DHT22;24349;53.720;10.014;2023-01-10T15:42:49;7.10;99.90
38582;DHT22;24349;53.720;10.014;2023-01-10T15:45:28;7.20;99.90
38582;DHT22;24349;53.720;10.014;2023-01-10T15:47:55;7.20;99.90
38582;DHT22;24349;53.720;10.014;2023-01-10T15:50:28;7.20;99.90
38582;DHT22;24349;53.720;10.014;2023-01-10T15:58:03;7.00;99.90
38582;DHT22;24349;53.720;10.014;2023-01-10T16:00:29;6.90;99.90
38582;DHT22;24349;53.720;10.014;2023-01-10T16:02:55;6.90;99.90
38582;DHT22;24349;53.720;10.014;2023-01-10T16:05:21;6.80;99.90
38582;DHT22;24349;53.720;10.014;2023-01-10T16:07:46;6.90;99.90
38582;DHT22;24349;53.720;10.014;2023-01-10T16:12:47;6.90;99.90
38582;DHT22;24349;53.720;10.014;2023-01-10T16:15:33;6.90;99.90
38582;DHT22;24349;53.720;10.014;2023-01-10T16:18:04;6.90;99.90
38582;DHT22;24349;53.720;10.014;2023-01-10T16:20:33;6.90;99.90
38582;DHT22;24349;53.720;10.014;2023-01-10T16:22:59;6.90;99.90
38582;DHT22;24349;53.720;10.014;2023-01-10T16:25:26;6.90;99.90
38582;DHT22;24349;53.720;10.014;2023-01-10T16:27:52;6.90;99.90
38582;DHT22;24349;53.720;10.014;2023-01-10T16:30:30;6.90;99.90
38582;DHT22;24349;53.720;10.014;2023-01-10T16:32:57;6.90;99.90
38582;DHT22;24349;53.720;10.014;2023-01-10T16:35:23;6.90;99.90
38582;DHT22;24349;53.720;10.014;2023-01-10T16:37:52;6.80;99.90
38582;DHT22;24349;53.720;10.014;2023-01-10T16:40:20;6.80;99.90
38582;DHT22;24349;53.720;10.014;2023-01-10T16:42:46;6.90;99.90
38582;DHT22;24349;53.720;10.014;2023-01-10T16:45:30;6.80;99.90
38582;DHT22;24349;53.720;10.014;2023-01-10T16:47:56;6.80;99.90
38582;DHT22;24349;53.720;10.014;2023-01-10T16:50:21;6.80;99.90
38582;DHT22;24349;53.720;10.014;2023-01-10T16:52:47;6.80;99.90
38582;DHT22;24349;53.720;10.014;2023-01-10T16:55:16;6.80;99.90
38582;DHT22;24349;53.720;10.014;2023-01-10T16:57:42;6.80;99.90
38582;DHT22;24349;53.720;10.014;2023-01-10T17:00:14;6.70;99.90
38582;DHT22;24349;53.720;10.014;2023-01-10T17:02:39;6.70;99.90